createdAt,value
2018-04-23T00:00:40.370Z,15.00
2018-04-23T00:03:09.049Z,15.00
2018-04-23T00:05:37.004Z,15.00
2018-04-23T00:08:04.906Z,15.00
2018-04-23T00:10:33.576Z,15.00
2018-04-23T00:13:01.533Z,15.00
2018-04-23T00:15:29.434Z,15.10
2018-04-23T00:17:57.386Z,15.20
2018-04-23T00:20:25.282Z,15.10
2018-04-23T00:22:53.260Z,15.00
2018-04-23T00:25:21.165Z,14.90
2018-04-23T00:27:49.115Z,14.70
2018-04-23T00:30:17.780Z,14.90
2018-04-23T00:32:45.747Z,14.80
2018-04-23T00:35:13.651Z,15.60
2018-04-23T00:37:41.613Z,16.20
2018-04-23T00:40:09.505Z,16.70
2018-04-23T00:42:37.458Z,16.90
2018-04-23T00:45:05.373Z,17.00
2018-04-23T00:47:34.119Z,17.20
2018-04-23T00:50:02.028Z,17.20
2018-04-23T00:52:30.745Z,17.40
2018-04-23T00:54:58.654Z,17.30
2018-04-23T00:57:30.305Z,17.40
2018-04-23T00:59:58.212Z,17.30
2018-04-23T01:02:26.117Z,17.20
2018-04-23T01:04:54.068Z,17.30
2018-04-23T01:07:22.721Z,17.40
2018-04-23T01:09:50.666Z,17.40
2018-04-23T01:12:18.588Z,17.30
2018-04-23T01:14:47.339Z,17.30
2018-04-23T01:17:15.233Z,17.30
2018-04-23T01:19:43.232Z,17.30
2018-04-23T01:22:11.125Z,17.20
2018-04-23T01:24:39.070Z,17.10
2018-04-23T01:27:06.956Z,17.10
2018-04-23T01:29:34.897Z,17.10
2018-04-23T01:32:03.593Z,16.90
2018-04-23T01:34:31.554Z,16.90
2018-04-23T01:37:00.231Z,16.80
2018-04-23T01:39:28.949Z,16.70
2018-04-23T01:41:56.878Z,16.70
2018-04-23T01:44:24.891Z,16.60
2018-04-23T01:46:52.780Z,16.50
2018-04-23T01:49:20.731Z,16.50
2018-04-23T01:51:48.642Z,16.50
2018-04-23T01:54:16.613Z,16.50
2018-04-23T01:56:44.509Z,16.40
2018-04-23T01:59:13.200Z,16.50
2018-04-23T02:01:41.169Z,16.40
2018-04-23T02:04:09.825Z,16.50
2018-04-23T02:06:37.782Z,16.50
2018-04-23T02:09:05.785Z,16.40
2018-04-23T02:11:34.494Z,16.40
2018-04-23T02:14:02.393Z,16.30
2018-04-23T02:16:30.517Z,16.30
2018-04-23T02:18:59.180Z,16.40
2018-04-23T02:21:27.145Z,16.40
2018-04-23T02:23:55.045Z,16.30
2018-04-23T02:26:23.761Z,16.10
2018-04-23T02:28:51.730Z,16.10
2018-04-23T02:31:19.699Z,16.10
2018-04-23T02:33:47.616Z,16.00
2018-04-23T02:36:15.573Z,16.00
2018-04-23T02:38:43.505Z,16.00
2018-04-23T02:41:11.461Z,16.10
2018-04-23T02:43:40.128Z,16.00
2018-04-23T02:46:08.083Z,16.00
2018-04-23T02:48:35.980Z,16.00
2018-04-23T02:51:04.701Z,15.90
2018-04-23T02:53:32.605Z,15.90
2018-04-23T02:56:00.551Z,15.80
2018-04-23T02:58:28.459Z,15.80
2018-04-23T03:00:56.407Z,15.70
2018-04-23T03:03:24.301Z,15.70
2018-04-23T03:05:52.261Z,15.60
2018-04-23T03:08:20.157Z,15.50
2018-04-23T03:10:49.243Z,15.50
2018-04-23T03:13:17.906Z,15.40
2018-04-23T03:15:45.859Z,15.40
2018-04-23T03:18:13.757Z,15.40
2018-04-23T03:20:41.710Z,15.50
2018-04-23T03:23:09.617Z,15.50
2018-04-23T03:25:38.373Z,15.30
2018-04-23T03:28:06.323Z,15.30
2018-04-23T03:30:34.283Z,15.20
2018-04-23T03:33:02.191Z,15.10
2018-04-23T03:35:30.145Z,14.90
2018-04-23T03:37:58.070Z,14.80
2018-04-23T03:40:26.029Z,14.70
2018-04-23T03:42:54.700Z,14.80
2018-04-23T03:45:23.427Z,14.80
2018-04-23T03:47:51.343Z,14.80
2018-04-23T03:50:19.290Z,14.70
2018-04-23T03:52:47.186Z,14.60
2018-04-23T03:55:15.082Z,14.50
2018-04-23T03:57:43.109Z,14.50
2018-04-23T04:00:11.021Z,14.50
2018-04-23T04:02:39.753Z,14.60
2018-04-23T04:05:07.696Z,14.60
2018-04-23T04:07:35.732Z,14.60
2018-04-23T04:10:04.428Z,14.50
2018-04-23T04:12:45.022Z,14.50
2018-04-23T04:15:24.769Z,14.50
2018-04-23T04:21:11.355Z,14.50
2018-04-23T04:23:42.489Z,14.50
2018-04-23T04:26:13.953Z,14.50
2018-04-23T04:28:45.261Z,14.50
2018-04-23T04:31:13.281Z,14.50
2018-04-23T04:33:41.947Z,14.40
2018-04-23T04:36:09.893Z,14.40
2018-04-23T04:38:37.800Z,14.40
2018-04-23T04:41:05.983Z,14.40
2018-04-23T04:43:38.145Z,14.40
2018-04-23T04:46:09.634Z,14.40
2018-04-23T04:48:41.608Z,14.40
2018-04-23T04:51:13.422Z,14.30
2018-04-23T04:53:44.975Z,14.40
2018-04-23T04:56:17.034Z,14.40
2018-04-23T04:58:46.889Z,14.40
2018-04-23T05:01:18.373Z,14.50
2018-04-23T05:03:49.218Z,14.50
2018-04-23T05:06:20.755Z,14.50
2018-04-23T05:08:52.941Z,14.40
2018-04-23T05:11:24.466Z,14.50
2018-04-23T05:13:57.205Z,14.70
2018-04-23T05:16:27.424Z,14.70
2018-04-23T05:18:57.947Z,14.90
2018-04-23T05:21:26.790Z,15.10
2018-04-23T05:23:54.703Z,15.10
2018-04-23T05:26:23.444Z,15.00
2018-04-23T05:28:51.350Z,15.00
2018-04-23T05:31:19.308Z,15.10
2018-04-23T05:33:47.209Z,15.20
2018-04-23T05:36:15.177Z,15.40
2018-04-23T05:38:43.071Z,15.50
2018-04-23T05:41:11.796Z,15.70
2018-04-23T05:43:39.723Z,15.70
2018-04-23T05:46:08.467Z,15.80
2018-04-23T05:48:36.386Z,15.80
2018-04-23T05:51:04.359Z,16.00
2018-04-23T05:53:33.066Z,16.10
2018-04-23T05:56:01.017Z,16.10
2018-04-23T05:58:28.916Z,16.20
2018-04-23T06:00:56.824Z,16.30
2018-04-23T06:03:24.773Z,16.40
2018-04-23T06:05:52.695Z,16.60
2018-04-23T06:08:20.657Z,17.00
2018-04-23T06:10:49.320Z,18.10
2018-04-23T06:13:17.266Z,18.10
2018-04-23T06:15:45.178Z,18.40
2018-04-23T06:18:13.896Z,19.30
2018-04-23T06:20:41.791Z,19.30
2018-04-23T06:23:09.731Z,20.10
2018-04-23T06:25:37.625Z,21.00
2018-04-23T06:28:05.588Z,21.90
2018-04-23T06:30:33.507Z,21.60
2018-04-23T06:33:02.220Z,20.70
2018-04-23T06:35:30.145Z,20.70
2018-04-23T06:37:58.106Z,20.50
2018-04-23T06:40:26.010Z,20.40
2018-04-23T06:42:54.733Z,20.40
2018-04-23T06:45:22.634Z,20.40
2018-04-23T06:47:50.601Z,20.80
2018-04-23T06:50:18.493Z,21.80
2018-04-23T06:52:46.452Z,22.30
2018-04-23T06:55:14.370Z,22.30
2018-04-23T06:57:42.324Z,21.60
2018-04-23T07:00:11.021Z,20.60
2018-04-23T07:02:38.984Z,20.60
2018-04-23T07:05:07.687Z,21.20
2018-04-23T07:07:35.669Z,21.20
2018-04-23T07:10:03.631Z,20.90
2018-04-23T07:12:31.581Z,21.00
2018-04-23T07:14:59.485Z,20.40
2018-04-23T07:17:27.491Z,20.60
2018-04-23T07:19:55.445Z,21.60
2018-04-23T07:22:23.396Z,22.20
2018-04-23T07:24:51.285Z,22.10
2018-04-23T07:27:19.242Z,22.10
2018-04-23T07:29:47.147Z,22.60
2018-04-23T07:32:15.107Z,22.70
2018-04-23T07:34:43.020Z,23.40
2018-04-23T07:37:10.973Z,22.90
2018-04-23T07:39:39.636Z,20.80
2018-04-23T07:42:07.648Z,20.80
2018-04-23T07:44:35.535Z,20.90
2018-04-23T07:47:03.501Z,21.30
2018-04-23T07:49:31.389Z,21.00
2018-04-23T07:51:59.330Z,20.30
2018-04-23T07:54:27.218Z,19.90
2018-04-23T07:56:55.166Z,19.40
2018-04-23T07:59:23.075Z,19.40
2018-04-23T08:01:51.008Z,20.10
2018-04-23T08:04:18.889Z,20.80
2018-04-23T08:06:46.884Z,21.40
2018-04-23T08:09:14.848Z,22.20
2018-04-23T08:11:42.788Z,22.90
2018-04-23T08:14:10.659Z,23.30
2018-04-23T08:16:38.593Z,22.70
2018-04-23T08:19:07.253Z,21.70
2018-04-23T08:21:35.207Z,21.70
2018-04-23T08:24:03.099Z,21.30
2018-04-23T08:26:30.992Z,21.20
2018-04-23T08:29:00.882Z,22.40
2018-04-23T08:31:28.870Z,22.30
2018-04-23T08:33:57.585Z,22.50
2018-04-23T08:36:25.474Z,22.50
2018-04-23T08:38:53.433Z,23.90
2018-04-23T08:41:22.157Z,24.60
2018-04-23T08:43:50.154Z,24.60
2018-04-23T08:46:18.073Z,25.50
2018-04-23T08:48:46.153Z,25.40
2018-04-23T08:51:14.098Z,26.30
2018-04-23T08:53:42.048Z,26.70
2018-04-23T08:56:10.712Z,27.30
2018-04-23T08:58:38.709Z,27.30
2018-04-23T09:01:07.378Z,28.40
2018-04-23T09:03:36.112Z,28.40
2018-04-23T09:06:04.064Z,28.40
2018-04-23T09:08:32.029Z,29.10
2018-04-23T09:10:59.926Z,28.00
2018-04-23T09:13:29.038Z,28.60
2018-04-23T09:15:57.160Z,29.90
2018-04-23T09:18:25.117Z,30.30
2018-04-23T09:20:53.791Z,31.20
2018-04-23T09:23:21.789Z,31.20
2018-04-23T09:25:49.692Z,30.80
2018-04-23T09:28:19.705Z,30.10
2018-04-23T09:30:47.646Z,29.30
2018-04-23T09:33:16.306Z,26.40
2018-04-23T09:35:44.276Z,26.30
2018-04-23T09:38:12.183Z,25.50
2018-04-23T09:40:40.129Z,25.00
2018-04-23T09:43:08.829Z,23.90
2018-04-23T09:45:37.535Z,23.50
2018-04-23T09:48:05.419Z,23.50
2018-04-23T09:50:33.417Z,23.00
2018-04-23T09:53:01.334Z,22.50
2018-04-23T09:55:29.417Z,22.00
2018-04-23T09:57:57.402Z,21.90
2018-04-23T10:00:31.534Z,22.10
2018-04-23T10:02:59.477Z,22.00
2018-04-23T10:05:27.437Z,22.30
2018-04-23T10:07:55.325Z,21.70
2018-04-23T10:10:23.287Z,22.00
2018-04-23T10:12:51.221Z,22.90
2018-04-23T10:15:19.943Z,23.80
2018-04-23T10:17:47.856Z,23.80
2018-04-23T10:20:17.250Z,23.60
2018-04-23T10:22:45.149Z,23.70
2018-04-23T10:25:14.152Z,22.80
2018-04-23T10:27:42.821Z,22.50
2018-04-23T10:30:10.725Z,22.50
2018-04-23T10:32:38.808Z,22.60
2018-04-23T10:35:06.728Z,22.60
2018-04-23T10:37:34.670Z,23.20
2018-04-23T10:40:02.566Z,22.90
2018-04-23T10:42:30.542Z,24.00
2018-04-23T10:44:59.215Z,24.90
2018-04-23T10:47:27.203Z,24.90
2018-04-23T10:49:55.102Z,24.90
2018-04-23T10:52:23.057Z,24.40
2018-04-23T10:54:51.717Z,24.10
2018-04-23T10:57:19.685Z,24.10
2018-04-23T10:59:47.588Z,24.70
2018-04-23T11:02:15.553Z,24.90
2018-04-23T11:04:46.061Z,24.70
2018-04-23T11:07:14.023Z,24.50
2018-04-23T11:09:41.947Z,24.80
2018-04-23T11:12:15.591Z,23.80
2018-04-23T11:14:47.434Z,23.20
2018-04-23T11:17:15.446Z,22.30
2018-04-23T11:19:44.116Z,21.50
2018-04-23T11:22:19.610Z,21.50
2018-04-23T11:24:47.568Z,21.30
2018-04-23T11:27:17.680Z,21.00
2018-04-23T11:29:46.350Z,21.10
2018-04-23T11:32:15.026Z,20.60
2018-04-23T11:34:43.039Z,20.60
2018-04-23T11:37:12.276Z,20.70
2018-04-23T11:39:40.230Z,20.70
2018-04-23T11:42:08.174Z,20.70
2018-04-23T11:44:36.138Z,20.60
2018-04-23T11:47:04.091Z,21.20
2018-04-23T11:49:32.837Z,22.00
2018-04-23T11:52:00.754Z,22.00
2018-04-23T11:54:29.490Z,22.20
2018-04-23T11:56:57.415Z,22.20
2018-04-23T11:59:26.142Z,23.30
2018-04-23T12:01:54.041Z,23.30
2018-04-23T12:04:22.056Z,23.20
2018-04-23T12:06:49.966Z,23.90
2018-04-23T12:09:17.946Z,23.90
2018-04-23T12:11:45.846Z,24.50
2018-04-23T12:14:14.862Z,25.10
2018-04-23T12:16:42.782Z,25.10
2018-04-23T12:19:10.752Z,24.30
2018-04-23T12:21:38.688Z,23.80
2018-04-23T12:24:06.692Z,24.00
2018-04-23T12:26:34.602Z,23.90
2018-04-23T12:29:03.345Z,23.90
2018-04-23T12:31:31.365Z,23.90
2018-04-23T12:33:59.326Z,24.20
2018-04-23T12:36:28.033Z,23.90
2018-04-23T12:38:55.993Z,23.90
2018-04-23T12:41:24.733Z,23.10
2018-04-23T12:43:52.692Z,23.10
2018-04-23T12:46:20.617Z,23.50
2018-04-23T12:48:49.346Z,23.30
2018-04-23T12:51:17.272Z,23.20
2018-04-23T12:53:45.235Z,23.00
2018-04-23T12:56:13.901Z,23.30
2018-04-23T12:58:41.872Z,23.30
2018-04-23T13:01:09.774Z,22.40
2018-04-23T13:03:37.717Z,22.80
2018-04-23T13:06:05.613Z,22.70
2018-04-23T13:08:34.338Z,22.80
2018-04-23T13:11:02.247Z,22.70
2018-04-23T13:13:30.184Z,23.10
2018-04-23T13:15:58.104Z,23.20
2018-04-23T13:18:26.870Z,22.50
2018-04-23T13:20:54.810Z,22.50
2018-04-23T13:23:22.775Z,21.50
2018-04-23T13:25:50.707Z,20.90
2018-04-23T13:28:18.653Z,21.00
2018-04-23T13:30:46.553Z,21.50
2018-04-23T13:33:14.495Z,21.70
2018-04-23T13:35:43.181Z,21.20
2018-04-23T13:38:11.116Z,21.20
2018-04-23T13:40:39.003Z,20.90
2018-04-23T13:43:06.946Z,20.60
2018-04-23T13:45:34.847Z,21.00
2018-04-23T13:48:02.806Z,21.60
2018-04-23T13:50:30.718Z,21.60
2018-04-23T13:52:58.695Z,21.90
2018-04-23T13:55:26.634Z,21.80
2018-04-23T13:57:55.374Z,21.60
2018-04-23T14:00:23.297Z,21.50
2018-04-23T14:02:51.969Z,21.60
2018-04-23T14:05:19.919Z,21.60
2018-04-23T14:07:47.809Z,21.50
2018-04-23T14:10:15.765Z,21.60
2018-04-23T14:12:43.663Z,22.00
2018-04-23T14:15:12.391Z,21.70
2018-04-23T14:17:40.305Z,21.70
2018-04-23T14:20:09.033Z,21.80
2018-04-23T14:22:36.995Z,21.80
2018-04-23T14:25:04.967Z,21.70
2018-04-23T14:27:33.247Z,21.70
2018-04-23T14:30:01.720Z,21.70
2018-04-23T14:32:29.749Z,21.80
2018-04-23T14:34:59.922Z,21.50
2018-04-23T14:37:27.831Z,21.60
2018-04-23T14:39:55.785Z,21.60
2018-04-23T14:42:23.688Z,21.60
2018-04-23T14:44:51.977Z,21.20
2018-04-23T14:47:19.896Z,20.90
2018-04-23T14:49:47.865Z,20.90
2018-04-23T14:52:16.545Z,20.80
2018-04-23T14:54:48.484Z,20.70
2018-04-23T14:57:17.157Z,20.80
2018-04-23T14:59:45.457Z,20.80
2018-04-23T15:02:13.369Z,20.70
2018-04-23T15:04:41.327Z,20.80
2018-04-23T15:07:09.228Z,20.80
2018-04-23T15:09:37.186Z,20.80
2018-04-23T15:12:05.105Z,20.90
2018-04-23T15:14:33.061Z,20.90
2018-04-23T15:17:01.752Z,20.40
2018-04-23T15:19:30.494Z,20.30
2018-04-23T15:21:58.484Z,20.30
2018-04-23T15:24:26.455Z,20.30
2018-04-23T15:26:54.420Z,20.40
2018-04-23T15:29:22.382Z,20.20
2018-04-23T15:31:50.350Z,20.10
2018-04-23T15:34:18.329Z,20.00
2018-04-23T15:36:46.241Z,19.90
2018-04-23T15:39:14.209Z,19.50
2018-04-23T15:41:42.100Z,19.40
2018-04-23T15:44:10.067Z,19.50
2018-04-23T15:46:38.019Z,19.50
2018-04-23T15:49:09.943Z,19.60
2018-04-23T15:51:37.857Z,19.70
2018-04-23T15:54:05.818Z,19.60
2018-04-23T15:56:33.726Z,19.40
2018-04-23T15:59:01.669Z,19.30
2018-04-23T16:01:29.570Z,19.30
2018-04-23T16:03:57.520Z,19.30
2018-04-23T16:06:25.427Z,19.30
2018-04-23T16:08:53.441Z,19.30
2018-04-23T16:11:21.335Z,19.20
2018-04-23T16:13:49.281Z,19.10
2018-04-23T16:16:17.170Z,19.00
2018-04-23T16:18:45.140Z,19.00
2018-04-23T16:21:13.037Z,19.10
2018-04-23T16:23:41.016Z,19.20
2018-04-23T16:26:08.917Z,19.30
2018-04-23T16:28:37.685Z,19.10
2018-04-23T16:31:05.587Z,19.10
2018-04-23T16:33:33.598Z,19.00
2018-04-23T16:36:01.491Z,18.80
2018-04-23T16:38:29.444Z,18.70
2018-04-23T16:40:57.353Z,18.60
2018-04-23T16:43:26.036Z,18.50
2018-04-23T16:45:54.756Z,18.30
2018-04-23T16:48:23.011Z,18.30
2018-04-23T16:50:54.177Z,18.40
2018-04-23T16:53:26.143Z,18.10
2018-04-23T16:55:57.569Z,18.10
2018-04-23T16:58:28.627Z,18.10
2018-04-23T17:00:59.012Z,18.00
2018-04-23T17:03:30.118Z,17.90
2018-04-23T17:06:01.478Z,17.70
2018-04-23T17:08:32.731Z,17.70
2018-04-23T17:11:03.578Z,17.60
2018-04-23T17:13:34.621Z,17.60
2018-04-23T17:16:06.326Z,17.50
2018-04-23T17:18:37.952Z,17.50
2018-04-23T17:21:09.064Z,17.50
2018-04-23T17:23:39.110Z,17.40
2018-04-23T17:26:11.788Z,17.40
2018-04-23T17:28:42.273Z,17.30
2018-04-23T17:31:10.362Z,17.40
2018-04-23T17:33:38.260Z,17.30
2018-04-23T17:36:07.084Z,17.00
2018-04-23T17:38:37.185Z,17.00
2018-04-23T17:41:06.437Z,17.00
2018-04-23T17:43:37.877Z,17.00
2018-04-23T17:46:09.105Z,16.80
2018-04-23T17:48:38.882Z,16.70
2018-04-23T17:51:10.031Z,16.70
2018-04-23T17:53:42.203Z,16.60
2018-04-23T17:56:11.571Z,16.50
2018-04-23T17:58:42.661Z,16.50
2018-04-23T18:01:15.558Z,16.30
2018-04-23T18:03:43.522Z,16.20
2018-04-23T18:06:11.529Z,16.00
2018-04-23T18:08:39.438Z,15.90
2018-04-23T18:11:07.443Z,15.80
2018-04-23T18:13:35.403Z,15.70
2018-04-23T18:16:04.168Z,15.50
2018-04-23T18:18:38.983Z,15.50
2018-04-23T18:21:06.962Z,15.40
2018-04-23T18:23:34.902Z,15.30
2018-04-23T18:26:02.954Z,15.20
2018-04-23T18:28:30.850Z,15.00
2018-04-23T18:31:00.039Z,14.90
2018-04-23T18:33:33.749Z,14.80
2018-04-23T18:36:01.735Z,14.60
2018-04-23T18:38:31.199Z,14.50
2018-04-23T18:40:59.203Z,14.40
2018-04-23T18:43:27.099Z,14.20
2018-04-23T18:45:55.036Z,14.10
2018-04-23T18:48:22.937Z,14.00
2018-04-23T18:50:56.711Z,13.90
2018-04-23T18:53:24.614Z,13.80
2018-04-23T18:55:52.558Z,13.70
2018-04-23T18:58:20.466Z,13.60
2018-04-23T19:00:48.424Z,13.40
2018-04-23T19:03:16.347Z,13.30
2018-04-23T19:05:44.392Z,13.20
2018-04-23T19:08:12.267Z,13.20
2018-04-23T19:10:40.225Z,13.00
2018-04-23T19:13:08.903Z,12.90
2018-04-23T19:15:37.693Z,12.70
2018-04-23T19:18:06.437Z,12.80
2018-04-23T19:20:34.830Z,12.80
2018-04-23T19:23:02.743Z,12.70
2018-04-23T19:25:31.525Z,12.60
2018-04-23T19:28:00.228Z,12.60
2018-04-23T19:30:28.197Z,12.60
2018-04-23T19:32:56.118Z,12.60
2018-04-23T19:35:24.093Z,12.60
2018-04-23T19:37:52.004Z,12.50
2018-04-23T19:40:19.994Z,12.40
2018-04-23T19:42:47.900Z,12.30
2018-04-23T19:45:15.921Z,12.20
2018-04-23T19:47:43.903Z,12.10
2018-04-23T19:50:11.967Z,12.00
2018-04-23T19:52:39.883Z,12.00
2018-04-23T19:55:07.946Z,12.00
2018-04-23T19:57:35.858Z,12.00
2018-04-23T20:00:03.918Z,11.90
2018-04-23T20:02:31.905Z,11.80
2018-04-23T20:04:59.877Z,11.80
2018-04-23T20:07:27.785Z,11.80
2018-04-23T20:09:55.815Z,11.70
2018-04-23T20:12:23.786Z,11.60
2018-04-23T20:14:51.763Z,11.50
2018-04-23T20:17:19.666Z,11.50
2018-04-23T20:19:47.662Z,11.50
2018-04-23T20:22:15.645Z,11.50
2018-04-23T20:24:44.365Z,11.30
2018-04-23T20:27:12.291Z,11.30
2018-04-23T20:29:40.416Z,11.30
2018-04-23T20:32:09.102Z,11.30
2018-04-23T20:34:37.091Z,11.30
2018-04-23T20:37:08.050Z,11.20
2018-04-23T20:39:39.313Z,11.10
2018-04-23T20:42:10.643Z,11.10
2018-04-23T20:44:41.564Z,10.90
2018-04-23T20:47:10.295Z,10.80
2018-04-23T20:49:39.050Z,10.70
2018-04-23T20:52:06.989Z,10.70
2018-04-23T20:54:35.214Z,10.70
2018-04-23T20:57:03.218Z,10.60
2018-04-23T20:59:31.967Z,10.60
2018-04-23T21:02:00.733Z,10.50
2018-04-23T21:04:28.642Z,10.50
2018-04-23T21:06:56.595Z,10.50
2018-04-23T21:09:24.485Z,10.40
2018-04-23T21:11:53.238Z,10.20
2018-04-23T21:14:21.136Z,10.20
2018-04-23T21:16:49.084Z,10.20
2018-04-23T21:19:16.985Z,10.20
2018-04-23T21:21:44.949Z,10.10
2018-04-23T21:24:12.879Z,10.00
2018-04-23T21:26:41.547Z,10.00
2018-04-23T21:29:09.444Z,9.90
2018-04-23T21:31:37.391Z,9.90
2018-04-23T21:34:05.333Z,9.90
2018-04-23T21:36:34.056Z,9.70
2018-04-23T21:39:02.720Z,9.70
2018-04-23T21:41:30.672Z,9.70
2018-04-23T21:43:59.345Z,9.60
2018-04-23T21:46:27.325Z,9.60
2018-04-23T21:48:55.261Z,9.60
2018-04-23T21:51:23.228Z,9.60
2018-04-23T21:53:51.143Z,9.60
2018-04-23T21:56:19.100Z,9.50
2018-04-23T21:58:46.998Z,9.40
2018-04-23T22:01:14.963Z,9.40
2018-04-23T22:03:42.852Z,9.30
2018-04-23T22:06:10.813Z,9.20
2018-04-23T22:08:39.123Z,9.20
2018-04-23T22:11:07.784Z,9.20
2018-04-23T22:13:37.207Z,9.20
2018-04-23T22:16:05.177Z,9.20
2018-04-23T22:18:33.081Z,9.20
2018-04-23T22:21:01.030Z,9.10
2018-04-23T22:23:28.920Z,9.10
2018-04-23T22:25:56.858Z,9.10
2018-04-23T22:28:24.745Z,9.10
2018-04-23T22:30:52.682Z,9.00
2018-04-23T22:33:20.584Z,9.00
2018-04-23T22:35:48.525Z,9.00
2018-04-23T22:38:16.417Z,9.00
2018-04-23T22:40:44.424Z,8.90
2018-04-23T22:43:13.090Z,8.70
2018-04-23T22:45:41.062Z,8.70
2018-04-23T22:48:08.966Z,8.70
2018-04-23T22:50:36.927Z,8.80
2018-04-23T22:53:05.594Z,8.60
2018-04-23T22:55:33.554Z,8.60
2018-04-23T22:58:01.443Z,8.60
2018-04-23T23:00:30.175Z,8.60
2018-04-23T23:02:58.074Z,8.60
2018-04-23T23:05:26.051Z,8.60
2018-04-23T23:07:53.957Z,8.60
2018-04-23T23:10:21.926Z,8.50
2018-04-23T23:12:49.816Z,8.50
2018-04-23T23:15:17.773Z,8.50
2018-04-23T23:17:45.717Z,8.50
2018-04-23T23:20:14.445Z,8.40
2018-04-23T23:22:42.343Z,8.40
2018-04-23T23:25:10.305Z,8.50
2018-04-23T23:27:38.203Z,8.50
2018-04-23T23:30:06.113Z,8.40
2018-04-23T23:32:34.076Z,8.30
2018-04-23T23:35:02.019Z,8.20
2018-04-23T23:37:30.746Z,8.20
2018-04-23T23:40:00.964Z,8.20
2018-04-23T23:42:28.959Z,8.10
2018-04-23T23:44:59.815Z,8.20
2018-04-23T23:47:27.953Z,8.10
2018-04-23T23:49:55.851Z,8.10
2018-04-23T23:52:23.791Z,8.10
2018-04-23T23:54:51.720Z,8.10
2018-04-23T23:57:20.470Z,7.80
2018-04-23T23:59:48.389Z,7.80
